sensor_id;sensor_type;location;lat;lon;timestamp;temperature;humidity
45229;DHT22;30967;51.728;8.682;2022-08-21T00:00:31;21.70;99.90
45229;DHT22;30967;51.728;8.682;2022-08-21T00:03:00;21.60;99.90
45229;DHT22;30967;51.728;8.682;2022-08-21T00:05:27;21.60;99.90
45229;DHT22;30967;51.728;8.682;2022-08-21T00:07:53;21.60;99.90
45229;DHT22;30967;51.728;8.682;2022-08-21T00:10:19;21.60;99.90
45229;DHT22;30967;51.728;8.682;2022-08-21T00:12:45;21.60;99.90
45229;DHT22;30967;51.728;8.682;2022-08-21T00:15:19;21.60;99.90
45229;DHT22;30967;51.728;8.682;2022-08-21T00:17:45;21.50;99.90
45229;DHT22;30967;51.728;8.682;2022-08-21T00:20:14;21.50;99.90
45229;DHT22;30967;51.728;8.682;2022-08-21T00:22:47;21.50;99.90
45229;DHT22;30967;51.728;8.682;2022-08-21T00:25:17;21.50;99.90
45229;DHT22;30967;51.728;8.682;2022-08-21T00:27:49;21.40;99.90
45229;DHT22;30967;51.728;8.682;2022-08-21T00:30:17;21.40;99.90
45229;DHT22;30967;51.728;8.682;2022-08-21T00:32:49;21.40;99.90
45229;DHT22;30967;51.728;8.682;2022-08-21T00:35:19;21.40;99.90
45229;DHT22;30967;51.728;8.682;2022-08-21T00:37:45;21.40;99.90
45229;DHT22;30967;51.728;8.682;2022-08-21T00:40:15;21.30;99.90
45229;DHT22;30967;51.728;8.682;2022-08-21T00:42:42;21.30;99.90
45229;DHT22;30967;51.728;8.682;2022-08-21T00:45:09;21.30;99.90
45229;DHT22;30967;51.728;8.682;2022-08-21T00:47:52;21.30;99.90
45229;DHT22;30967;51.728;8.682;2022-08-21T00:50:21;21.20;99.90
45229;DHT22;30967;51.728;8.682;2022-08-21T00:52:48;21.20;99.90
45229;DHT22;30967;51.728;8.682;2022-08-21T00:55:18;21.20;99.90
45229;DHT22;30967;51.728;8.682;2022-08-21T00:57:48;21.20;99.90
45229;DHT22;30967;51.728;8.682;2022-08-21T01:00:17;21.20;99.90
45229;DHT22;30967;51.728;8.682;2022-08-21T01:02:47;21.10;99.90
45229;DHT22;30967;51.728;8.682;2022-08-21T01:05:13;21.10;99.90
45229;DHT22;30967;51.728;8.682;2022-08-21T01:07:40;21.10;99.90
45229;DHT22;30967;51.728;8.682;2022-08-21T01:10:06;21.10;99.90
45229;DHT22;30967;51.728;8.682;2022-08-21T01:12:33;21.10;99.90
45229;DHT22;30967;51.728;8.682;2022-08-21T01:15:01;21.00;99.90
45229;DHT22;30967;51.728;8.682;2022-08-21T01:17:27;21.00;99.90
45229;DHT22;30967;51.728;8.682;2022-08-21T01:19:56;21.00;99.90
45229;DHT22;30967;51.728;8.682;2022-08-21T01:22:22;21.00;99.90
45229;DHT22;30967;51.728;8.682;2022-08-21T01:24:48;21.00;99.90
45229;DHT22;30967;51.728;8.682;2022-08-21T01:27:16;20.90;99.90
45229;DHT22;30967;51.728;8.682;2022-08-21T01:29:51;20.90;99.90
45229;DHT22;30967;51.728;8.682;2022-08-21T01:32:19;20.90;99.90
45229;DHT22;30967;51.728;8.682;2022-08-21T01:34:47;20.90;99.90
45229;DHT22;30967;51.728;8.682;2022-08-21T01:37:13;20.80;99.90
45229;DHT22;30967;51.728;8.682;2022-08-21T01:39:39;20.90;99.90
45229;DHT22;30967;51.728;8.682;2022-08-21T01:42:06;20.80;99.90
45229;DHT22;30967;51.728;8.682;2022-08-21T01:44:32;20.80;99.90
45229;DHT22;30967;51.728;8.682;2022-08-21T01:47:08;20.80;99.90
45229;DHT22;30967;51.728;8.682;2022-08-21T01:49:35;20.80;99.90
45229;DHT22;30967;51.728;8.682;2022-08-21T01:52:02;20.70;99.90
45229;DHT22;30967;51.728;8.682;2022-08-21T01:54:29;20.70;99.90
45229;DHT22;30967;51.728;8.682;2022-08-21T01:56:56;20.70;99.90
45229;DHT22;30967;51.728;8.682;2022-08-21T01:59:23;20.70;99.90
45229;DHT22;30967;51.728;8.682;2022-08-21T02:01:53;20.70;99.90
45229;DHT22;30967;51.728;8.682;2022-08-21T02:04:20;20.70;99.90
45229;DHT22;30967;51.728;8.682;2022-08-21T02:06:54;20.70;99.90
45229;DHT22;30967;51.728;8.682;2022-08-21T02:09:20;20.60;99.90
45229;DHT22;30967;51.728;8.682;2022-08-21T02:12:04;20.60;99.90
45229;DHT22;30967;51.728;8.682;2022-08-21T02:14:29;20.60;99.90
45229;DHT22;30967;51.728;8.682;2022-08-21T02:16:55;20.60;99.90
45229;DHT22;30967;51.728;8.682;2022-08-21T02:19:21;20.60;99.90
45229;DHT22;30967;51.728;8.682;2022-08-21T02:21:48;20.60;99.90
45229;DHT22;30967;51.728;8.682;2022-08-21T02:24:14;20.50;99.90
45229;DHT22;30967;51.728;8.682;2022-08-21T02:26:40;20.50;99.90
45229;DHT22;30967;51.728;8.682;2022-08-21T02:29:06;20.50;99.90
45229;DHT22;30967;51.728;8.682;2022-08-21T02:31:32;20.50;99.90
45229;DHT22;30967;51.728;8.682;2022-08-21T02:33:58;20.50;99.90
45229;DHT22;30967;51.728;8.682;2022-08-21T02:36:23;20.50;99.90
45229;DHT22;30967;51.728;8.682;2022-08-21T02:38:54;20.50;99.90
45229;DHT22;30967;51.728;8.682;2022-08-21T02:41:21;20.40;99.90
45229;DHT22;30967;51.728;8.682;2022-08-21T02:43:47;20.40;99.90
45229;DHT22;30967;51.728;8.682;2022-08-21T02:46:15;20.40;99.90
45229;DHT22;30967;51.728;8.682;2022-08-21T02:48:47;20.40;99.90
45229;DHT22;30967;51.728;8.682;2022-08-21T02:51:17;20.30;99.90
45229;DHT22;30967;51.728;8.682;2022-08-21T02:53:44;20.30;99.90
45229;DHT22;30967;51.728;8.682;2022-08-21T02:56:12;20.30;99.90
45229;DHT22;30967;51.728;8.682;2022-08-21T02:58:45;20.30;99.90
45229;DHT22;30967;51.728;8.682;2022-08-21T03:01:27;20.30;99.90
45229;DHT22;30967;51.728;8.682;2022-08-21T03:03:53;20.20;99.90
45229;DHT22;30967;51.728;8.682;2022-08-21T03:06:21;20.20;99.90
45229;DHT22;30967;51.728;8.682;2022-08-21T03:08:47;20.20;99.90
45229;DHT22;30967;51.728;8.682;2022-08-21T03:11:17;20.20;99.90
45229;DHT22;30967;51.728;8.682;2022-08-21T03:13:48;20.20;99.90
45229;DHT22;30967;51.728;8.682;2022-08-21T03:16:14;20.10;99.90
45229;DHT22;30967;51.728;8.682;2022-08-21T03:18:40;20.10;99.90
45229;DHT22;30967;51.728;8.682;2022-08-21T03:21:07;20.10;99.90
45229;DHT22;30967;51.728;8.682;2022-08-21T03:23:32;20.10;99.90
45229;DHT22;30967;51.728;8.682;2022-08-21T03:25:58;20.00;99.90
45229;DHT22;30967;51.728;8.682;2022-08-21T03:28:24;20.00;99.90
45229;DHT22;30967;51.728;8.682;2022-08-21T03:30:51;20.00;99.90
45229;DHT22;30967;51.728;8.682;2022-08-21T03:33:17;20.00;99.90
45229;DHT22;30967;51.728;8.682;2022-08-21T03:35:45;20.00;99.90
45229;DHT22;30967;51.728;8.682;2022-08-21T03:38:12;20.00;99.90
45229;DHT22;30967;51.728;8.682;2022-08-21T03:40:38;20.00;99.90
45229;DHT22;30967;51.728;8.682;2022-08-21T03:43:08;20.00;99.90
45229;DHT22;30967;51.728;8.682;2022-08-21T03:45:34;20.00;99.90
45229;DHT22;30967;51.728;8.682;2022-08-21T03:48:06;19.90;99.90
45229;DHT22;30967;51.728;8.682;2022-08-21T03:50:36;19.90;99.90
45229;DHT22;30967;51.728;8.682;2022-08-21T03:53:04;19.90;99.90
45229;DHT22;30967;51.728;8.682;2022-08-21T03:55:30;19.90;99.90
45229;DHT22;30967;51.728;8.682;2022-08-21T03:57:56;19.90;99.90
45229;DHT22;30967;51.728;8.682;2022-08-21T04:00:25;19.90;99.90
45229;DHT22;30967;51.728;8.682;2022-08-21T04:02:51;19.80;99.90
45229;DHT22;30967;51.728;8.682;2022-08-21T04:05:17;19.80;99.90
45229;DHT22;30967;51.728;8.682;2022-08-21T04:08:03;19.80;99.90
45229;DHT22;30967;51.728;8.682;2022-08-21T04:10:32;19.80;99.90
45229;DHT22;30967;51.728;8.682;2022-08-21T04:12:58;19.80;99.90
45229;DHT22;30967;51.728;8.682;2022-08-21T04:15:24;19.80;99.90
45229;DHT22;30967;51.728;8.682;2022-08-21T04:17:51;19.80;99.90
45229;DHT22;30967;51.728;8.682;2022-08-21T04:20:18;19.80;99.90
45229;DHT22;30967;51.728;8.682;2022-08-21T04:22:44;19.70;99.90
45229;DHT22;30967;51.728;8.682;2022-08-21T04:25:12;19.80;99.90
45229;DHT22;30967;51.728;8.682;2022-08-21T04:27:38;19.80;99.90
45229;DHT22;30967;51.728;8.682;2022-08-21T04:30:06;19.70;99.90
45229;DHT22;30967;51.728;8.682;2022-08-21T04:32:32;19.70;99.90
45229;DHT22;30967;51.728;8.682;2022-08-21T04:35:12;19.70;99.90
45229;DHT22;30967;51.728;8.682;2022-08-21T04:37:38;19.80;99.90
45229;DHT22;30967;51.728;8.682;2022-08-21T04:40:05;19.80;99.90
45229;DHT22;30967;51.728;8.682;2022-08-21T04:42:43;19.70;99.90
45229;DHT22;30967;51.728;8.682;2022-08-21T04:45:22;19.80;99.90
45229;DHT22;30967;51.728;8.682;2022-08-21T04:47:50;19.80;99.90
45229;DHT22;30967;51.728;8.682;2022-08-21T04:50:34;19.70;99.90
45229;DHT22;30967;51.728;8.682;2022-08-21T04:53:01;19.70;99.90
45229;DHT22;30967;51.728;8.682;2022-08-21T04:55:27;19.70;99.90
45229;DHT22;30967;51.728;8.682;2022-08-21T04:57:57;19.70;99.90
45229;DHT22;30967;51.728;8.682;2022-08-21T05:00:24;19.70;99.90
45229;DHT22;30967;51.728;8.682;2022-08-21T05:02:51;19.70;99.90
45229;DHT22;30967;51.728;8.682;2022-08-21T05:05:20;19.70;99.90
45229;DHT22;30967;51.728;8.682;2022-08-21T05:07:46;19.80;99.90
45229;DHT22;30967;51.728;8.682;2022-08-21T05:10:13;19.70;99.90
45229;DHT22;30967;51.728;8.682;2022-08-21T05:12:40;19.70;99.90
45229;DHT22;30967;51.728;8.682;2022-08-21T05:15:07;19.70;99.90
45229;DHT22;30967;51.728;8.682;2022-08-21T05:17:33;19.70;99.90
45229;DHT22;30967;51.728;8.682;2022-08-21T05:20:04;19.70;99.90
45229;DHT22;30967;51.728;8.682;2022-08-21T05:22:32;19.70;99.90
45229;DHT22;30967;51.728;8.682;2022-08-21T05:24:58;19.70;99.90
45229;DHT22;30967;51.728;8.682;2022-08-21T05:27:23;19.70;99.90
45229;DHT22;30967;51.728;8.682;2022-08-21T05:29:49;19.80;99.90
45229;DHT22;30967;51.728;8.682;2022-08-21T05:32:15;19.70;99.90
45229;DHT22;30967;51.728;8.682;2022-08-21T05:34:40;19.80;99.90
45229;DHT22;30967;51.728;8.682;2022-08-21T05:37:06;19.80;99.90
45229;DHT22;30967;51.728;8.682;2022-08-21T05:39:31;19.80;99.90
45229;DHT22;30967;51.728;8.682;2022-08-21T05:41:57;19.70;99.90
45229;DHT22;30967;51.728;8.682;2022-08-21T05:44:31;19.80;99.90
45229;DHT22;30967;51.728;8.682;2022-08-21T05:47:06;19.80;99.90
45229;DHT22;30967;51.728;8.682;2022-08-21T05:49:32;19.70;99.90
45229;DHT22;30967;51.728;8.682;2022-08-21T05:51:58;19.80;99.90
45229;DHT22;30967;51.728;8.682;2022-08-21T05:54:23;19.80;99.90
45229;DHT22;30967;51.728;8.682;2022-08-21T05:56:49;19.80;99.90
45229;DHT22;30967;51.728;8.682;2022-08-21T05:59:15;19.80;99.90
45229;DHT22;30967;51.728;8.682;2022-08-21T06:01:41;19.80;99.90
45229;DHT22;30967;51.728;8.682;2022-08-21T06:04:06;19.70;99.90
45229;DHT22;30967;51.728;8.682;2022-08-21T06:06:33;19.80;99.90
45229;DHT22;30967;51.728;8.682;2022-08-21T06:08:59;19.80;99.90
45229;DHT22;30967;51.728;8.682;2022-08-21T06:11:33;19.80;99.90
45229;DHT22;30967;51.728;8.682;2022-08-21T06:13:59;19.80;99.90
45229;DHT22;30967;51.728;8.682;2022-08-21T06:16:25;19.80;99.90
45229;DHT22;30967;51.728;8.682;2022-08-21T06:18:51;19.80;99.90
45229;DHT22;30967;51.728;8.682;2022-08-21T06:21:17;19.80;99.90
45229;DHT22;30967;51.728;8.682;2022-08-21T06:23:43;19.80;99.90
45229;DHT22;30967;51.728;8.682;2022-08-21T06:26:10;19.80;99.90
45229;DHT22;30967;51.728;8.682;2022-08-21T06:28:36;19.80;99.90
45229;DHT22;30967;51.728;8.682;2022-08-21T06:31:14;19.80;99.90
45229;DHT22;30967;51.728;8.682;2022-08-21T06:33:39;19.80;99.90
45229;DHT22;30967;51.728;8.682;2022-08-21T06:36:05;19.90;99.90
45229;DHT22;30967;51.728;8.682;2022-08-21T06:38:36;19.90;99.90
45229;DHT22;30967;51.728;8.682;2022-08-21T06:41:02;19.90;99.90
45229;DHT22;30967;51.728;8.682;2022-08-21T06:43:28;19.90;99.90
45229;DHT22;30967;51.728;8.682;2022-08-21T06:45:53;19.90;99.90
45229;DHT22;30967;51.728;8.682;2022-08-21T06:48:20;20.00;99.90
45229;DHT22;30967;51.728;8.682;2022-08-21T06:50:59;20.00;99.90
45229;DHT22;30967;51.728;8.682;2022-08-21T06:53:24;20.00;99.90
45229;DHT22;30967;51.728;8.682;2022-08-21T06:55:50;20.00;99.90
45229;DHT22;30967;51.728;8.682;2022-08-21T06:58:16;20.00;99.90
45229;DHT22;30967;51.728;8.682;2022-08-21T07:00:46;20.10;99.90
45229;DHT22;30967;51.728;8.682;2022-08-21T07:03:22;20.10;99.90
45229;DHT22;30967;51.728;8.682;2022-08-21T07:05:47;20.10;99.90
45229;DHT22;30967;51.728;8.682;2022-08-21T07:08:13;20.10;99.90
45229;DHT22;30967;51.728;8.682;2022-08-21T07:10:39;20.10;99.90
45229;DHT22;30967;51.728;8.682;2022-08-21T07:13:04;20.10;99.90
45229;DHT22;30967;51.728;8.682;2022-08-21T07:15:30;20.20;99.90
45229;DHT22;30967;51.728;8.682;2022-08-21T07:17:57;20.20;99.90
45229;DHT22;30967;51.728;8.682;2022-08-21T07:20:23;20.20;99.90
45229;DHT22;30967;51.728;8.682;2022-08-21T07:22:50;20.20;99.90
45229;DHT22;30967;51.728;8.682;2022-08-21T07:25:25;20.30;99.90
45229;DHT22;30967;51.728;8.682;2022-08-21T07:27:51;20.30;99.90
45229;DHT22;30967;51.728;8.682;2022-08-21T07:30:16;20.40;99.90
45229;DHT22;30967;51.728;8.682;2022-08-21T07:32:42;20.40;99.90
45229;DHT22;30967;51.728;8.682;2022-08-21T07:35:07;20.40;99.90
45229;DHT22;30967;51.728;8.682;2022-08-21T07:37:33;20.40;99.90
45229;DHT22;30967;51.728;8.682;2022-08-21T07:39:59;20.40;99.90
45229;DHT22;30967;51.728;8.682;2022-08-21T07:42:24;20.50;99.90
45229;DHT22;30967;51.728;8.682;2022-08-21T07:44:50;20.50;99.90
45229;DHT22;30967;51.728;8.682;2022-08-21T07:47:15;20.60;99.90
45229;DHT22;30967;51.728;8.682;2022-08-21T07:49:41;20.60;99.90
45229;DHT22;30967;51.728;8.682;2022-08-21T07:52:07;20.60;99.90
45229;DHT22;30967;51.728;8.682;2022-08-21T07:54:32;20.70;99.90
45229;DHT22;30967;51.728;8.682;2022-08-21T07:56:58;20.70;99.90
45229;DHT22;30967;51.728;8.682;2022-08-21T07:59:24;20.70;99.90
45229;DHT22;30967;51.728;8.682;2022-08-21T08:01:49;20.70;99.90
45229;DHT22;30967;51.728;8.682;2022-08-21T08:04:15;20.80;99.90
45229;DHT22;30967;51.728;8.682;2022-08-21T08:06:46;20.80;99.90
45229;DHT22;30967;51.728;8.682;2022-08-21T08:09:12;20.90;99.90
45229;DHT22;30967;51.728;8.682;2022-08-21T08:11:41;20.90;99.90
45229;DHT22;30967;51.728;8.682;2022-08-21T08:14:09;21.00;99.90
45229;DHT22;30967;51.728;8.682;2022-08-21T08:16:35;21.00;99.90
45229;DHT22;30967;51.728;8.682;2022-08-21T08:19:10;21.00;99.90
45229;DHT22;30967;51.728;8.682;2022-08-21T08:21:35;21.10;99.90
45229;DHT22;30967;51.728;8.682;2022-08-21T08:24:03;21.10;99.90
45229;DHT22;30967;51.728;8.682;2022-08-21T08:26:28;21.20;99.90
45229;DHT22;30967;51.728;8.682;2022-08-21T08:28:54;21.20;99.90
45229;DHT22;30967;51.728;8.682;2022-08-21T08:31:19;21.20;99.90
45229;DHT22;30967;51.728;8.682;2022-08-21T08:33:47;21.30;99.90
45229;DHT22;30967;51.728;8.682;2022-08-21T08:36:17;21.40;99.90
45229;DHT22;30967;51.728;8.682;2022-08-21T08:38:50;21.40;99.90
45229;DHT22;30967;51.728;8.682;2022-08-21T08:41:17;21.40;99.90
45229;DHT22;30967;51.728;8.682;2022-08-21T08:43:55;21.50;99.90
45229;DHT22;30967;51.728;8.682;2022-08-21T08:46:46;21.50;99.90
45229;DHT22;30967;51.728;8.682;2022-08-21T08:49:22;21.60;99.70
45229;DHT22;30967;51.728;8.682;2022-08-21T08:52:02;21.60;99.00
45229;DHT22;30967;51.728;8.682;2022-08-21T08:54:41;21.70;98.50
45229;DHT22;30967;51.728;8.682;2022-08-21T08:57:17;21.70;98.10
45229;DHT22;30967;51.728;8.682;2022-08-21T08:59:48;21.80;98.00
45229;DHT22;30967;51.728;8.682;2022-08-21T09:02:16;21.80;98.00
45229;DHT22;30967;51.728;8.682;2022-08-21T09:04:44;21.80;98.10
45229;DHT22;30967;51.728;8.682;2022-08-21T09:07:31;21.90;97.70
45229;DHT22;30967;51.728;8.682;2022-08-21T09:10:26;21.90;97.30
45229;DHT22;30967;51.728;8.682;2022-08-21T09:13:12;22.00;96.70
45229;DHT22;30967;51.728;8.682;2022-08-21T09:15:51;22.00;96.30
45229;DHT22;30967;51.728;8.682;2022-08-21T09:18:51;22.10;95.90
45229;DHT22;30967;51.728;8.682;2022-08-21T09:21:27;22.20;95.70
45229;DHT22;30967;51.728;8.682;2022-08-21T09:24:01;22.20;95.30
45229;DHT22;30967;51.728;8.682;2022-08-21T09:29:37;22.40;96.00
45229;DHT22;30967;51.728;8.682;2022-08-21T09:32:13;22.40;95.30
45229;DHT22;30967;51.728;8.682;2022-08-21T09:34:40;22.50;95.30
45229;DHT22;30967;51.728;8.682;2022-08-21T09:37:17;22.60;95.50
45229;DHT22;30967;51.728;8.682;2022-08-21T09:39:45;22.70;94.90
45229;DHT22;30967;51.728;8.682;2022-08-21T09:42:22;22.80;95.50
45229;DHT22;30967;51.728;8.682;2022-08-21T09:47:34;22.90;96.10
45229;DHT22;30967;51.728;8.682;2022-08-21T09:50:16;23.00;95.50
45229;DHT22;30967;51.728;8.682;2022-08-21T09:52:44;23.00;95.10
45229;DHT22;30967;51.728;8.682;2022-08-21T09:55:18;23.10;94.20
45229;DHT22;30967;51.728;8.682;2022-08-21T09:58:04;23.10;93.90
45229;DHT22;30967;51.728;8.682;2022-08-21T10:00:32;23.10;93.80
45229;DHT22;30967;51.728;8.682;2022-08-21T10:03:16;23.20;94.00
45229;DHT22;30967;51.728;8.682;2022-08-21T10:06:10;23.20;93.90
45229;DHT22;30967;51.728;8.682;2022-08-21T10:08:45;23.30;93.60
45229;DHT22;30967;51.728;8.682;2022-08-21T10:11:14;23.30;93.50
45229;DHT22;30967;51.728;8.682;2022-08-21T10:19:10;23.40;92.70
45229;DHT22;30967;51.728;8.682;2022-08-21T10:22:04;23.50;92.90
45229;DHT22;30967;51.728;8.682;2022-08-21T10:27:24;23.60;92.50
45229;DHT22;30967;51.728;8.682;2022-08-21T10:30:02;23.60;91.90
45229;DHT22;30967;51.728;8.682;2022-08-21T10:35:12;23.60;92.70
45229;DHT22;30967;51.728;8.682;2022-08-21T10:40:57;23.80;93.10
45229;DHT22;30967;51.728;8.682;2022-08-21T10:43:47;23.80;91.60
45229;DHT22;30967;51.728;8.682;2022-08-21T10:54:46;24.00;91.90
45229;DHT22;30967;51.728;8.682;2022-08-21T10:57:38;24.00;92.10
45229;DHT22;30967;51.728;8.682;2022-08-21T11:00:12;24.00;91.70
45229;DHT22;30967;51.728;8.682;2022-08-21T11:03:05;24.10;91.20
45229;DHT22;30967;51.728;8.682;2022-08-21T11:05:54;24.10;91.20
45229;DHT22;30967;51.728;8.682;2022-08-21T11:08:26;24.20;91.00
45229;DHT22;30967;51.728;8.682;2022-08-21T11:11:13;24.20;90.80
45229;DHT22;30967;51.728;8.682;2022-08-21T11:13:49;24.20;90.40
45229;DHT22;30967;51.728;8.682;2022-08-21T11:16:33;24.20;90.50
45229;DHT22;30967;51.728;8.682;2022-08-21T11:19:09;24.20;90.30
45229;DHT22;30967;51.728;8.682;2022-08-21T11:22:07;24.20;90.20
45229;DHT22;30967;51.728;8.682;2022-08-21T11:27:45;24.30;89.10
45229;DHT22;30967;51.728;8.682;2022-08-21T11:30:12;24.30;88.70
45229;DHT22;30967;51.728;8.682;2022-08-21T11:33:17;24.30;87.70
45229;DHT22;30967;51.728;8.682;2022-08-21T11:35:52;24.30;89.80
45229;DHT22;30967;51.728;8.682;2022-08-21T11:38:28;24.40;90.00
45229;DHT22;30967;51.728;8.682;2022-08-21T11:43:47;24.40;88.50
45229;DHT22;30967;51.728;8.682;2022-08-21T11:46:16;24.40;88.50
45229;DHT22;30967;51.728;8.682;2022-08-21T11:56:52;24.50;89.30
45229;DHT22;30967;51.728;8.682;2022-08-21T11:59:32;24.50;89.50
45229;DHT22;30967;51.728;8.682;2022-08-21T12:02:00;24.50;90.30
45229;DHT22;30967;51.728;8.682;2022-08-21T12:04:30;24.60;90.30
45229;DHT22;30967;51.728;8.682;2022-08-21T12:07:08;24.70;89.90
45229;DHT22;30967;51.728;8.682;2022-08-21T12:09:36;24.70;90.10
45229;DHT22;30967;51.728;8.682;2022-08-21T12:12:24;24.80;89.90
45229;DHT22;30967;51.728;8.682;2022-08-21T12:15:14;24.80;88.50
45229;DHT22;30967;51.728;8.682;2022-08-21T12:25:40;25.00;89.70
45229;DHT22;30967;51.728;8.682;2022-08-21T12:28:07;25.00;89.30
45229;DHT22;30967;51.728;8.682;2022-08-21T12:30:37;25.10;89.30
45229;DHT22;30967;51.728;8.682;2022-08-21T12:33:17;25.20;89.50
45229;DHT22;30967;51.728;8.682;2022-08-21T12:35:47;25.20;88.80
45229;DHT22;30967;51.728;8.682;2022-08-21T12:38:32;25.30;89.10
45229;DHT22;30967;51.728;8.682;2022-08-21T12:41:10;25.40;90.00
45229;DHT22;30967;51.728;8.682;2022-08-21T12:43:43;25.50;88.60
45229;DHT22;30967;51.728;8.682;2022-08-21T12:46:37;25.60;87.60
45229;DHT22;30967;51.728;8.682;2022-08-21T12:49:16;25.60;87.70
45229;DHT22;30967;51.728;8.682;2022-08-21T12:52:12;25.70;86.90
45229;DHT22;30967;51.728;8.682;2022-08-21T12:54:42;25.70;86.50
45229;DHT22;30967;51.728;8.682;2022-08-21T12:57:17;25.80;86.90
45229;DHT22;30967;51.728;8.682;2022-08-21T12:59:43;25.90;85.10
45229;DHT22;30967;51.728;8.682;2022-08-21T13:02:18;26.00;86.40
45229;DHT22;30967;51.728;8.682;2022-08-21T13:04:47;26.10;86.30
45229;DHT22;30967;51.728;8.682;2022-08-21T13:07:19;26.20;86.50
45229;DHT22;30967;51.728;8.682;2022-08-21T13:10:06;26.30;86.00
45229;DHT22;30967;51.728;8.682;2022-08-21T13:12:44;26.40;83.60
45229;DHT22;30967;51.728;8.682;2022-08-21T13:15:11;26.50;84.30
45229;DHT22;30967;51.728;8.682;2022-08-21T13:17:42;26.70;85.10
45229;DHT22;30967;51.728;8.682;2022-08-21T13:20:45;26.90;86.00
45229;DHT22;30967;51.728;8.682;2022-08-21T13:23:26;27.10;84.00
45229;DHT22;30967;51.728;8.682;2022-08-21T13:25:55;27.40;84.90
45229;DHT22;30967;51.728;8.682;2022-08-21T13:28:22;27.60;84.10
45229;DHT22;30967;51.728;8.682;2022-08-21T13:30:51;27.70;82.70
45229;DHT22;30967;51.728;8.682;2022-08-21T13:33:22;27.80;81.10
45229;DHT22;30967;51.728;8.682;2022-08-21T13:36:10;27.90;81.60
45229;DHT22;30967;51.728;8.682;2022-08-21T13:38:40;28.20;81.20
45229;DHT22;30967;51.728;8.682;2022-08-21T13:43:49;28.60;82.20
45229;DHT22;30967;51.728;8.682;2022-08-21T13:46:17;28.90;82.60
45229;DHT22;30967;51.728;8.682;2022-08-21T13:48:43;29.10;83.10
45229;DHT22;30967;51.728;8.682;2022-08-21T13:51:09;29.30;80.50
45229;DHT22;30967;51.728;8.682;2022-08-21T13:53:46;29.50;80.50
45229;DHT22;30967;51.728;8.682;2022-08-21T13:58:48;29.80;80.40
45229;DHT22;30967;51.728;8.682;2022-08-21T14:01:28;29.90;76.80
45229;DHT22;30967;51.728;8.682;2022-08-21T14:04:01;30.00;77.40
45229;DHT22;30967;51.728;8.682;2022-08-21T14:06:32;30.00;76.50
45229;DHT22;30967;51.728;8.682;2022-08-21T14:09:03;30.10;77.40
45229;DHT22;30967;51.728;8.682;2022-08-21T14:11:34;30.20;77.60
45229;DHT22;30967;51.728;8.682;2022-08-21T14:14:04;30.40;77.10
45229;DHT22;30967;51.728;8.682;2022-08-21T14:17:06;30.50;75.80
45229;DHT22;30967;51.728;8.682;2022-08-21T14:32:49;31.00;72.20
45229;DHT22;30967;51.728;8.682;2022-08-21T14:35:21;31.10;73.80
45229;DHT22;30967;51.728;8.682;2022-08-21T14:37:49;31.10;74.10
45229;DHT22;30967;51.728;8.682;2022-08-21T14:40:18;31.20;72.50
45229;DHT22;30967;51.728;8.682;2022-08-21T14:42:45;31.30;72.50
45229;DHT22;30967;51.728;8.682;2022-08-21T14:45:17;31.30;74.00
45229;DHT22;30967;51.728;8.682;2022-08-21T14:47:44;31.40;73.90
45229;DHT22;30967;51.728;8.682;2022-08-21T14:50:12;31.50;73.90
45229;DHT22;30967;51.728;8.682;2022-08-21T14:52:39;31.60;74.20
45229;DHT22;30967;51.728;8.682;2022-08-21T14:55:07;31.70;73.80
45229;DHT22;30967;51.728;8.682;2022-08-21T14:57:36;31.80;74.00
45229;DHT22;30967;51.728;8.682;2022-08-21T15:00:04;31.90;73.80
45229;DHT22;30967;51.728;8.682;2022-08-21T15:02:30;32.00;73.90
45229;DHT22;30967;51.728;8.682;2022-08-21T15:04:56;32.10;73.70
45229;DHT22;30967;51.728;8.682;2022-08-21T15:07:21;32.10;72.80
45229;DHT22;30967;51.728;8.682;2022-08-21T15:09:49;32.20;72.40
45229;DHT22;30967;51.728;8.682;2022-08-21T15:12:15;32.20;72.30
45229;DHT22;30967;51.728;8.682;2022-08-21T15:17:58;32.30;71.20
45229;DHT22;30967;51.728;8.682;2022-08-21T15:20:24;32.30;70.80
45229;DHT22;30967;51.728;8.682;2022-08-21T15:22:50;32.20;69.60
45229;DHT22;30967;51.728;8.682;2022-08-21T15:25:16;32.20;70.20
45229;DHT22;30967;51.728;8.682;2022-08-21T15:27:43;32.20;70.00
45229;DHT22;30967;51.728;8.682;2022-08-21T15:30:09;32.20;70.00
45229;DHT22;30967;51.728;8.682;2022-08-21T15:32:35;32.20;69.80
45229;DHT22;30967;51.728;8.682;2022-08-21T15:35:01;32.20;69.20
45229;DHT22;30967;51.728;8.682;2022-08-21T15:37:27;32.20;69.30
45229;DHT22;30967;51.728;8.682;2022-08-21T15:39:53;32.20;66.20
45229;DHT22;30967;51.728;8.682;2022-08-21T15:42:19;32.00;67.40
45229;DHT22;30967;51.728;8.682;2022-08-21T15:44:47;32.00;68.30
45229;DHT22;30967;51.728;8.682;2022-08-21T15:47:16;31.90;68.30
45229;DHT22;30967;51.728;8.682;2022-08-21T15:49:42;31.90;69.10
45229;DHT22;30967;51.728;8.682;2022-08-21T15:52:12;31.80;68.40
45229;DHT22;30967;51.728;8.682;2022-08-21T15:54:37;31.70;68.70
45229;DHT22;30967;51.728;8.682;2022-08-21T15:57:03;31.70;68.70
45229;DHT22;30967;51.728;8.682;2022-08-21T15:59:37;31.60;69.00
45229;DHT22;30967;51.728;8.682;2022-08-21T16:02:06;31.50;68.30
45229;DHT22;30967;51.728;8.682;2022-08-21T16:04:32;31.40;68.70
45229;DHT22;30967;51.728;8.682;2022-08-21T16:06:58;31.30;69.00
45229;DHT22;30967;51.728;8.682;2022-08-21T16:09:23;31.20;68.70
45229;DHT22;30967;51.728;8.682;2022-08-21T16:11:50;31.10;68.50
45229;DHT22;30967;51.728;8.682;2022-08-21T16:14:16;31.10;68.70
45229;DHT22;30967;51.728;8.682;2022-08-21T16:16:43;31.00;68.90
45229;DHT22;30967;51.728;8.682;2022-08-21T16:19:10;30.90;68.80
45229;DHT22;30967;51.728;8.682;2022-08-21T16:21:36;30.80;68.60
45229;DHT22;30967;51.728;8.682;2022-08-21T16:24:02;30.70;68.80
45229;DHT22;30967;51.728;8.682;2022-08-21T16:26:28;30.60;69.10
45229;DHT22;30967;51.728;8.682;2022-08-21T16:28:55;30.50;68.50
45229;DHT22;30967;51.728;8.682;2022-08-21T16:31:22;30.40;69.60
45229;DHT22;30967;51.728;8.682;2022-08-21T16:33:52;30.30;69.00
45229;DHT22;30967;51.728;8.682;2022-08-21T16:36:19;30.20;69.30
45229;DHT22;30967;51.728;8.682;2022-08-21T16:38:45;30.10;69.10
45229;DHT22;30967;51.728;8.682;2022-08-21T16:41:15;30.00;69.80
45229;DHT22;30967;51.728;8.682;2022-08-21T16:43:41;29.90;69.60
45229;DHT22;30967;51.728;8.682;2022-08-21T16:46:19;29.80;69.90
45229;DHT22;30967;51.728;8.682;2022-08-21T16:48:46;29.80;70.00
45229;DHT22;30967;51.728;8.682;2022-08-21T16:51:15;29.70;70.50
45229;DHT22;30967;51.728;8.682;2022-08-21T16:53:41;29.60;70.40
45229;DHT22;30967;51.728;8.682;2022-08-21T16:56:10;29.50;70.50
45229;DHT22;30967;51.728;8.682;2022-08-21T16:58:37;29.40;70.60
45229;DHT22;30967;51.728;8.682;2022-08-21T17:01:07;29.30;70.50